GCEND KSDF-KFFT
Flight info
| Callsign | GCEND |
|---|---|
| Flight time | 0h 25m |
| Altitude | 2500 |
| Route | KSDF / IIU VOR / KFFT |
| Aircraft | C172/L-VGDW/C |
Departure
| Time | 2026-04-27 10:21 |
|---|---|
| Airport | Louisville Muhammad Ali International Airport (KSDF) |
Arrival
| Time | 2026-04-27 10:46 |
|---|---|
| Airport | Capital City Airport (KFFT) |
| Time | Latitude | Longitude | Altitude | Speed | Heading |
|---|---|---|---|---|---|
| 2026-04-27 10:09 | 38.17595 | -85.72427 | 478 ft | 0 kts | 254° |
| 2026-04-27 10:17 | 38.17530 | -85.72455 | 477 ft | 15 kts | 168° |
| 2026-04-27 10:18 | 38.17477 | -85.72440 | 476 ft | 7 kts | 189° |
| 2026-04-27 10:18 | 38.17428 | -85.72392 | 476 ft | 15 kts | 120° |
| 2026-04-27 10:18 | 38.17384 | -85.72359 | 476 ft | 0 kts | 183° |
| 2026-04-27 10:19 | 38.17382 | -85.72360 | 476 ft | 3 kts | 196° |
| 2026-04-27 10:19 | 38.17324 | -85.72434 | 476 ft | 10 kts | 275° |
| 2026-04-27 10:19 | 38.17329 | -85.72460 | 476 ft | 0 kts | 291° |
| 2026-04-27 10:20 | 38.17342 | -85.72504 | 476 ft | 27 kts | 291° |
| 2026-04-27 10:20 | 38.17480 | -85.72959 | 490 ft | 74 kts | 292° |
| 2026-04-27 10:20 | 38.17667 | -85.73570 | 714 ft | 72 kts | 293° |
| 2026-04-27 10:20 | 38.17856 | -85.74146 | 939 ft | 74 kts | 285° |
| 2026-04-27 10:21 | 38.18045 | -85.74795 | 1149 ft | 80 kts | 286° |
| 2026-04-27 10:21 | 38.18167 | -85.75495 | 1360 ft | 82 kts | 255° |
| 2026-04-27 10:21 | 38.17857 | -85.76088 | 1586 ft | 81 kts | 216° |
| 2026-04-27 10:21 | 38.17389 | -85.76508 | 1796 ft | 83 kts | 204° |
| 2026-04-27 10:22 | 38.16861 | -85.76812 | 2006 ft | 82 kts | 197° |
| 2026-04-27 10:22 | 38.16321 | -85.77062 | 2202 ft | 83 kts | 194° |
| 2026-04-27 10:22 | 38.15771 | -85.76943 | 2408 ft | 83 kts | 144° |
| 2026-04-27 10:22 | 38.15495 | -85.76283 | 2613 ft | 88 kts | 114° |
| 2026-04-27 10:23 | 38.15370 | -85.75497 | 2816 ft | 88 kts | 110° |
| 2026-04-27 10:23 | 38.15141 | -85.74786 | 2956 ft | 90 kts | 126° |
| 2026-04-27 10:23 | 38.14841 | -85.74006 | 2927 ft | 100 kts | 122° |
| 2026-04-27 10:23 | 38.14596 | -85.73147 | 2916 ft | 106 kts | 117° |
| 2026-04-27 10:24 | 38.14358 | -85.72237 | 2916 ft | 107 kts | 115° |
| 2026-04-27 10:24 | 38.14118 | -85.71319 | 2917 ft | 108 kts | 116° |
| 2026-04-27 10:24 | 38.13880 | -85.70411 | 2913 ft | 108 kts | 116° |
| 2026-04-27 10:24 | 38.13635 | -85.69495 | 2913 ft | 108 kts | 116° |
| 2026-04-27 10:25 | 38.13402 | -85.68581 | 2916 ft | 108 kts | 115° |
| 2026-04-27 10:25 | 38.13158 | -85.67672 | 2912 ft | 108 kts | 117° |
| 2026-04-27 10:25 | 38.12919 | -85.66774 | 2910 ft | 108 kts | 116° |
| 2026-04-27 10:25 | 38.12684 | -85.65857 | 2908 ft | 108 kts | 115° |
| 2026-04-27 10:26 | 38.12445 | -85.64948 | 2913 ft | 108 kts | 116° |
| 2026-04-27 10:26 | 38.12301 | -85.64378 | 2912 ft | 107 kts | 116° |
| 2026-04-27 10:26 | 38.12170 | -85.63866 | 2911 ft | 107 kts | 117° |
| 2026-04-27 10:27 | 38.11936 | -85.62958 | 2908 ft | 108 kts | 117° |
| 2026-04-27 10:27 | 38.11691 | -85.62041 | 2792 ft | 117 kts | 116° |
| 2026-04-27 10:27 | 38.11393 | -85.61025 | 2548 ft | 126 kts | 116° |
| 2026-04-27 10:27 | 38.11077 | -85.60006 | 2464 ft | 118 kts | 117° |
| 2026-04-27 10:28 | 38.10794 | -85.59055 | 2484 ft | 112 kts | 116° |
| 2026-04-27 10:28 | 38.10522 | -85.58130 | 2483 ft | 110 kts | 116° |
| 2026-04-27 10:28 | 38.10353 | -85.57183 | 2480 ft | 115 kts | 90° |
| 2026-04-27 10:28 | 38.10545 | -85.56187 | 2486 ft | 116 kts | 87° |
| 2026-04-27 10:29 | 38.10634 | -85.55160 | 2485 ft | 115 kts | 91° |
| 2026-04-27 10:29 | 38.10718 | -85.54146 | 2483 ft | 116 kts | 90° |
| 2026-04-27 10:29 | 38.10782 | -85.53131 | 2480 ft | 115 kts | 92° |
| 2026-04-27 10:29 | 38.10856 | -85.52123 | 2496 ft | 115 kts | 91° |
| 2026-04-27 10:30 | 38.10934 | -85.51103 | 2492 ft | 117 kts | 91° |
| 2026-04-27 10:30 | 38.11013 | -85.50072 | 2496 ft | 117 kts | 91° |
| 2026-04-27 10:30 | 38.11094 | -85.49046 | 2485 ft | 117 kts | 90° |
| 2026-04-27 10:30 | 38.11176 | -85.48026 | 2485 ft | 116 kts | 90° |
| 2026-04-27 10:31 | 38.11251 | -85.47001 | 2487 ft | 116 kts | 91° |
| 2026-04-27 10:31 | 38.11326 | -85.45976 | 2486 ft | 116 kts | 91° |
| 2026-04-27 10:31 | 38.11403 | -85.44955 | 2493 ft | 117 kts | 92° |
| 2026-04-27 10:31 | 38.11484 | -85.43921 | 2485 ft | 117 kts | 91° |
| 2026-04-27 10:32 | 38.11565 | -85.42892 | 2494 ft | 117 kts | 90° |
| 2026-04-27 10:32 | 38.11643 | -85.41865 | 2486 ft | 117 kts | 91° |
| 2026-04-27 10:32 | 38.11722 | -85.40846 | 2494 ft | 117 kts | 90° |
| 2026-04-27 10:32 | 38.11793 | -85.39817 | 2490 ft | 116 kts | 92° |
| 2026-04-27 10:33 | 38.11856 | -85.38788 | 2488 ft | 117 kts | 91° |
| 2026-04-27 10:33 | 38.11920 | -85.37770 | 2484 ft | 116 kts | 92° |
| 2026-04-27 10:33 | 38.11989 | -85.36748 | 2492 ft | 116 kts | 90° |
| 2026-04-27 10:33 | 38.12055 | -85.35719 | 2490 ft | 117 kts | 92° |
| 2026-04-27 10:34 | 38.12128 | -85.34686 | 2494 ft | 116 kts | 92° |
| 2026-04-27 10:34 | 38.12191 | -85.33657 | 2494 ft | 116 kts | 93° |
| 2026-04-27 10:34 | 38.12267 | -85.32629 | 2488 ft | 117 kts | 92° |
| 2026-04-27 10:34 | 38.12340 | -85.31616 | 2489 ft | 116 kts | 91° |
| 2026-04-27 10:35 | 38.12409 | -85.30584 | 2489 ft | 117 kts | 92° |
| 2026-04-27 10:35 | 38.12478 | -85.29552 | 2487 ft | 117 kts | 92° |
| 2026-04-27 10:35 | 38.12552 | -85.28528 | 2494 ft | 117 kts | 91° |
| 2026-04-27 10:35 | 38.12621 | -85.27505 | 2495 ft | 117 kts | 92° |
| 2026-04-27 10:36 | 38.12695 | -85.26472 | 2486 ft | 117 kts | 91° |
| 2026-04-27 10:36 | 38.12767 | -85.25440 | 2493 ft | 117 kts | 92° |
| 2026-04-27 10:36 | 38.12840 | -85.24408 | 2484 ft | 117 kts | 92° |
| 2026-04-27 10:36 | 38.12915 | -85.23383 | 2490 ft | 117 kts | 91° |
| 2026-04-27 10:37 | 38.12984 | -85.22347 | 2488 ft | 117 kts | 92° |
| 2026-04-27 10:37 | 38.13057 | -85.21333 | 2489 ft | 117 kts | 92° |
| 2026-04-27 10:37 | 38.13131 | -85.20293 | 2487 ft | 116 kts | 92° |
| 2026-04-27 10:37 | 38.13203 | -85.19276 | 2475 ft | 116 kts | 92° |
| 2026-04-27 10:38 | 38.13271 | -85.18259 | 2486 ft | 115 kts | 92° |
| 2026-04-27 10:38 | 38.13345 | -85.17229 | 2487 ft | 116 kts | 91° |
| 2026-04-27 10:38 | 38.13422 | -85.16203 | 2492 ft | 117 kts | 91° |
| 2026-04-27 10:38 | 38.13504 | -85.15187 | 2479 ft | 117 kts | 91° |
| 2026-04-27 10:39 | 38.13587 | -85.14165 | 2484 ft | 116 kts | 90° |
| 2026-04-27 10:39 | 38.13659 | -85.13139 | 2488 ft | 116 kts | 91° |
| 2026-04-27 10:39 | 38.13738 | -85.12115 | 2486 ft | 116 kts | 91° |
| 2026-04-27 10:39 | 38.13820 | -85.11089 | 2482 ft | 116 kts | 91° |
| 2026-04-27 10:40 | 38.13896 | -85.10077 | 2481 ft | 116 kts | 91° |
| 2026-04-27 10:40 | 38.13966 | -85.09003 | 2317 ft | 123 kts | 91° |
| 2026-04-27 10:40 | 38.14034 | -85.07911 | 2134 ft | 124 kts | 91° |
| 2026-04-27 10:40 | 38.14090 | -85.06822 | 1959 ft | 125 kts | 90° |
| 2026-04-27 10:41 | 38.14128 | -85.05718 | 1785 ft | 124 kts | 90° |
| 2026-04-27 10:41 | 38.14156 | -85.04659 | 1770 ft | 114 kts | 90° |
| 2026-04-27 10:41 | 38.14182 | -85.03679 | 1767 ft | 109 kts | 92° |
| 2026-04-27 10:41 | 38.14201 | -85.02718 | 1777 ft | 107 kts | 92° |
| 2026-04-27 10:42 | 38.14223 | -85.01772 | 1774 ft | 107 kts | 91° |
| 2026-04-27 10:42 | 38.14322 | -85.00839 | 1780 ft | 108 kts | 81° |
| 2026-04-27 10:42 | 38.14596 | -84.99943 | 1781 ft | 110 kts | 64° |
| 2026-04-27 10:42 | 38.14996 | -84.99104 | 1773 ft | 110 kts | 62° |
| 2026-04-27 10:43 | 38.15336 | -84.98284 | 1770 ft | 95 kts | 66° |
| 2026-04-27 10:43 | 38.15622 | -84.97616 | 1800 ft | 78 kts | 65° |
| 2026-04-27 10:43 | 38.15877 | -84.97004 | 1780 ft | 78 kts | 67° |
| 2026-04-27 10:43 | 38.16126 | -84.96395 | 1782 ft | 77 kts | 65° |
| 2026-04-27 10:44 | 38.16372 | -84.95758 | 1718 ft | 83 kts | 67° |
| 2026-04-27 10:44 | 38.16608 | -84.95087 | 1612 ft | 86 kts | 71° |
| 2026-04-27 10:44 | 38.16831 | -84.94374 | 1472 ft | 86 kts | 70° |
| 2026-04-27 10:44 | 38.17021 | -84.93655 | 1272 ft | 86 kts | 72° |
| 2026-04-27 10:45 | 38.17278 | -84.92995 | 1122 ft | 81 kts | 61° |
| 2026-04-27 10:45 | 38.17530 | -84.92352 | 975 ft | 81 kts | 61° |
| 2026-04-27 10:45 | 38.17778 | -84.91706 | 851 ft | 79 kts | 62° |
| 2026-04-27 10:45 | 38.17997 | -84.91132 | 795 ft | 55 kts | 59° |
| 2026-04-27 10:46 | 38.18079 | -84.90916 | 788 ft | 7 kts | 126° |
| 2026-04-27 10:46 | 38.18028 | -84.90906 | 791 ft | 6 kts | 152° |
| 2026-04-27 10:46 | 38.18008 | -84.90887 | 792 ft | 3 kts | 121° |
| 2026-04-27 10:46 | 38.18041 | -84.90782 | 787 ft | 20 kts | 65° |
| 2026-04-27 10:47 | 38.18109 | -84.90605 | 780 ft | 20 kts | 66° |
| 2026-04-27 10:47 | 38.18089 | -84.90494 | 778 ft | 15 kts | 81° |
| 2026-04-27 10:47 | 38.18108 | -84.90419 | 776 ft | 1 kts | 15° |